Time;durP1;ratioP1;P1;durP2;ratioP2;P2;SDS_P1;SDS_P2;PMS_P1;PMS_P2;Temp;Humidity;BMP_temperature;BMP_pressure;BME280_temperature;BME280_humidity;BME280_pressure;Samples;Min_cycle;Max_cycle;Signal;HPM_P1;HPM_P2
2022/08/25 14:40:26;;;;;;;4.60;2.23;;;;;;;;;;5093953;27;20342;-63
2022/08/25 14:42:52;;;;;;;7.90;3.00;;;;;;;;;;5086336;28;20493;-65
2022/08/25 14:45:19;;;;;;;6.35;3.00;;;;;;;;;;5085524;28;20044;-64
2022/08/25 14:47:45;;;;;;;5.47;2.80;;;;;;;;;;5085097;28;20063;-64
2022/08/25 14:50:13;;;;;;;8.30;2.70;;;;;;;;;;5087215;28;20545;-63
2022/08/25 14:52:40;;;;;;;5.20;2.75;;;;;;;;;;5085166;28;20091;-63
2022/08/25 14:55:07;;;;;;;5.80;2.60;;;;;;;;;;5083703;28;20861;-64
2022/08/25 14:57:34;;;;;;;6.13;2.78;;;;;;;;;;5084404;28;20052;-64
2022/08/25 15:00:00;;;;;;;5.30;3.03;;;;;;;;;;5083758;28;20115;-66
2022/08/25 15:02:26;;;;;;;6.43;3.10;;;;;;;;;;5082909;28;20040;-64
2022/08/25 15:04:54;;;;;;;5.22;2.67;;;;;;;;;;5083204;28;20055;-67
2022/08/25 15:10:06;;;;;;;4.45;2.65;;;;;;;;;;5083491;28;20032;-64
2022/08/25 15:12:32;;;;;;;5.55;3.03;;;;;;;;;;5085876;28;20052;-63
2022/08/25 15:15:00;;;;;;;4.88;2.60;;;;;;;;;;5082504;28;20124;-64
2022/08/25 15:17:26;;;;;;;4.63;2.60;;;;;;;;;;5083400;28;20452;-66
2022/08/25 15:19:52;;;;;;;4.70;2.70;;;;;;;;;;5083876;28;20098;-63
2022/08/25 15:22:18;;;;;;;5.30;2.70;;;;;;;;;;5084073;28;20067;-64
2022/08/25 15:24:44;;;;;;;4.07;2.45;;;;;;;;;;5084879;28;20040;-64
2022/08/25 15:27:11;;;;;;;5.20;2.50;;;;;;;;;;5092705;28;20115;-65
2022/08/25 15:29:39;;;;;;;3.47;2.42;;;;;;;;;;5084345;28;20048;-67
2022/08/25 15:32:06;;;;;;;4.78;2.55;;;;;;;;;;5079385;28;20539;-64
2022/08/25 15:34:33;;;;;;;4.03;2.50;;;;;;;;;;5087166;28;20048;-63
2022/08/25 15:37:05;;;;;;;4.50;2.38;;;;;;;;;;5085339;28;20109;-64
2022/08/25 15:39:31;;;;;;;4.40;2.80;;;;;;;;;;5086639;28;20060;-62
2022/08/25 15:41:57;;;;;;;4.28;2.40;;;;;;;;;;5084986;28;20040;-64
2022/08/25 15:44:24;;;;;;;4.40;2.72;;;;;;;;;;5086835;28;20131;-63
2022/08/25 15:46:50;;;;;;;4.95;2.40;;;;;;;;;;5085027;28;20072;-64
2022/08/25 15:49:17;;;;;;;4.63;2.58;;;;;;;;;;5083588;28;20243;-64
2022/08/25 15:51:44;;;;;;;3.97;2.42;;;;;;;;;;5070591;28;20051;-65
2022/08/25 15:54:10;;;;;;;5.13;2.60;;;;;;;;;;5073240;28;20071;-63
2022/08/25 15:56:36;;;;;;;4.35;2.22;;;;;;;;;;5060346;28;20089;-63
2022/08/25 15:59:04;;;;;;;3.78;2.38;;;;;;;;;;5072459;28;20047;-63
2022/08/25 16:01:30;;;;;;;3.88;2.20;;;;;;;;;;5070629;28;20076;-64
2022/08/25 16:03:56;;;;;;;4.28;2.50;;;;;;;;;;5072263;28;20412;-64
2022/08/25 16:06:23;;;;;;;6.05;2.67;;;;;;;;;;5071847;28;20048;-64
2022/08/25 16:08:49;;;;;;;4.65;2.60;;;;;;;;;;5072633;28;20047;-64
2022/08/25 16:11:17;;;;;;;5.05;2.80;;;;;;;;;;5050487;28;20059;-64
2022/08/25 16:13:44;;;;;;;3.67;2.40;;;;;;;;;;5068368;28;20057;-68
2022/08/25 16:16:10;;;;;;;3.88;2.30;;;;;;;;;;5050932;28;20084;-64
2022/08/25 16:18:36;;;;;;;3.50;2.40;;;;;;;;;;5065556;28;20041;-63
2022/08/25 16:21:02;;;;;;;3.83;2.20;;;;;;;;;;5064674;28;20063;-63
2022/08/25 16:23:28;;;;;;;4.68;2.40;;;;;;;;;;5070884;28;20056;-63
2022/08/25 16:25:54;;;;;;;4.75;2.40;;;;;;;;;;5071655;28;20045;-63
2022/08/25 16:28:20;;;;;;;3.75;2.28;;;;;;;;;;5072464;28;20119;-63
2022/08/25 16:30:47;;;;;;;6.45;2.42;;;;;;;;;;5071531;28;20123;-67
2022/08/25 16:33:14;;;;;;;5.60;2.90;;;;;;;;;;5071769;28;20583;-64
2022/08/25 16:35:41;;;;;;;4.57;2.50;;;;;;;;;;5071111;28;20059;-64
2022/08/25 16:38:07;;;;;;;5.90;2.50;;;;;;;;;;5056122;28;20064;-63
2022/08/25 16:40:33;;;;;;;7.53;2.72;;;;;;;;;;5063569;28;20052;-64
2022/08/25 16:42:59;;;;;;;5.05;2.47;;;;;;;;;;5071715;28;20119;-64
2022/08/25 16:45:25;;;;;;;6.57;2.40;;;;;;;;;;5071049;28;20072;-64
2022/08/25 16:47:52;;;;;;;5.47;2.30;;;;;;;;;;5068002;28;20052;-65
2022/08/25 16:50:18;;;;;;;5.97;3.25;;;;;;;;;;5052463;28;20115;-65
2022/08/25 16:55:31;;;;;;;6.32;3.30;;;;;;;;;;5054049;28;20060;-65
2022/08/25 16:57:58;;;;;;;7.28;3.28;;;;;;;;;;5070765;28;20106;-64
2022/08/25 17:00:26;;;;;;;8.35;4.20;;;;;;;;;;5071022;28;20502;-64
2022/08/25 17:03:00;;;;;;;6.30;3.65;;;;;;;;;;5068633;28;20044;-65
2022/08/25 17:05:30;;;;;;;5.95;3.08;;;;;;;;;;5070030;28;20562;-63
2022/08/25 17:10:44;;;;;;;6.50;3.38;;;;;;;;;;5069828;28;20162;-65
2022/08/25 17:13:11;;;;;;;7.97;3.90;;;;;;;;;;5067731;28;20040;-64
2022/08/25 17:15:41;;;;;;;6.85;3.97;;;;;;;;;;5067139;28;20781;-64
2022/08/25 17:18:08;;;;;;;10.20;4.40;;;;;;;;;;5068163;28;20279;-64
2022/08/25 17:20:34;;;;;;;10.18;3.53;;;;;;;;;;5071310;28;20037;-64
2022/08/25 17:23:00;;;;;;;6.80;3.88;;;;;;;;;;5068948;28;20040;-65
2022/08/25 17:25:26;;;;;;;7.20;3.67;;;;;;;;;;5064016;28;20063;-64
2022/08/25 17:27:52;;;;;;;7.45;3.83;;;;;;;;;;5051347;28;20068;-67
2022/08/25 17:30:18;;;;;;;8.20;3.53;;;;;;;;;;5050668;28;20102;-65
2022/08/25 17:32:44;;;;;;;7.22;3.80;;;;;;;;;;5066178;28;20045;-64
2022/08/25 17:35:10;;;;;;;7.20;3.50;;;;;;;;;;5063940;28;20044;-65
2022/08/25 17:37:37;;;;;;;5.75;3.20;;;;;;;;;;5050369;28;20041;-64
2022/08/25 17:40:05;;;;;;;5.80;3.30;;;;;;;;;;5073205;28;20119;-64
2022/08/25 17:42:31;;;;;;;8.75;4.15;;;;;;;;;;5051074;28;20130;-65
2022/08/25 17:44:57;;;;;;;6.78;3.67;;;;;;;;;;5050811;28;20102;-65
2022/08/25 17:47:23;;;;;;;6.18;3.53;;;;;;;;;;5083483;28;20040;-64
2022/08/25 17:49:49;;;;;;;6.85;3.80;;;;;;;;;;5069817;28;20080;-65
2022/08/25 17:52:15;;;;;;;6.47;3.40;;;;;;;;;;5063539;28;20082;-65
2022/08/25 17:54:42;;;;;;;6.10;3.55;;;;;;;;;;5066435;28;20059;-65
2022/08/25 17:57:08;;;;;;;8.02;3.22;;;;;;;;;;5064394;28;20051;-64
2022/08/25 17:59:35;;;;;;;7.28;3.25;;;;;;;;;;5061060;28;20036;-64
2022/08/25 18:02:02;;;;;;;6.10;3.40;;;;;;;;;;5066941;28;20045;-64
2022/08/25 18:04:28;;;;;;;7.90;3.42;;;;;;;;;;5067509;28;20044;-64
2022/08/25 18:06:54;;;;;;;8.13;3.50;;;;;;;;;;5073807;28;20474;-65
2022/08/25 18:09:20;;;;;;;6.68;3.85;;;;;;;;;;5055054;28;20375;-65
2022/08/25 18:11:46;;;;;;;7.60;3.47;;;;;;;;;;5069202;28;20044;-64
2022/08/25 18:14:13;;;;;;;6.85;3.25;;;;;;;;;;5056773;28;20360;-64
2022/08/25 18:16:39;;;;;;;6.43;3.33;;;;;;;;;;5049093;28;20497;-64
2022/08/25 18:19:06;;;;;;;6.82;3.50;;;;;;;;;;5049788;28;20037;-65
2022/08/25 18:21:32;;;;;;;6.55;4.00;;;;;;;;;;5053034;28;20037;-65
2022/08/25 18:24:00;;;;;;;8.23;3.47;;;;;;;;;;5060661;28;20049;-68
2022/08/25 18:26:26;;;;;;;6.80;3.35;;;;;;;;;;5064623;28;20393;-65
2022/08/25 18:28:52;;;;;;;6.70;3.00;;;;;;;;;;5069409;28;20481;-64
2022/08/25 18:31:18;;;;;;;6.70;3.60;;;;;;;;;;5041583;28;20174;-66
2022/08/25 18:33:44;;;;;;;7.03;3.30;;;;;;;;;;5065513;28;20090;-65
2022/08/25 18:36:12;;;;;;;6.53;3.47;;;;;;;;;;5067844;28;20143;-65
2022/08/25 18:41:23;;;;;;;6.72;3.58;;;;;;;;;;5063591;28;20482;-64
2022/08/25 18:43:51;;;;;;;5.82;3.22;;;;;;;;;;5060802;28;20049;-65
2022/08/25 18:46:17;;;;;;;6.63;3.35;;;;;;;;;;5053568;28;20687;-65
2022/08/25 18:48:44;;;;;;;5.90;3.42;;;;;;;;;;5073118;28;20053;-64
2022/08/25 18:51:11;;;;;;;5.85;3.53;;;;;;;;;;5066225;28;20525;-64
2022/08/25 18:53:37;;;;;;;8.30;3.42;;;;;;;;;;5066621;28;20469;-65
2022/08/25 18:56:04;;;;;;;6.72;3.47;;;;;;;;;;5062611;28;20051;-64
2022/08/25 18:58:30;;;;;;;6.20;3.38;;;;;;;;;;5066460;28;20442;-65
2022/08/25 19:00:56;;;;;;;5.60;3.30;;;;;;;;;;5065629;28;20052;-65
2022/08/25 19:03:23;;;;;;;7.78;3.70;;;;;;;;;;5066134;28;20044;-65
2022/08/25 19:05:51;;;;;;;5.10;3.08;;;;;;;;;;5066891;28;20036;-65
2022/08/25 19:08:17;;;;;;;6.32;3.22;;;;;;;;;;5065856;28;20051;-64
2022/08/25 19:10:44;;;;;;;5.65;3.33;;;;;;;;;;5066615;28;20174;-64
2022/08/25 19:13:11;;;;;;;6.20;3.10;;;;;;;;;;5066210;28;20093;-65
2022/08/25 19:15:39;;;;;;;5.55;3.13;;;;;;;;;;5064170;28;20056;-65
2022/08/25 19:18:06;;;;;;;5.80;3.20;;;;;;;;;;5079653;28;20044;-65
2022/08/25 19:20:33;;;;;;;5.50;3.10;;;;;;;;;;5066795;28;20051;-65
2022/08/25 19:23:00;;;;;;;6.18;3.30;;;;;;;;;;5080107;28;20041;-65
2022/08/25 19:25:27;;;;;;;5.82;3.08;;;;;;;;;;5064712;28;20065;-64
2022/08/25 19:27:53;;;;;;;5.78;3.20;;;;;;;;;;5067054;28;20045;-65
2022/08/25 19:30:21;;;;;;;4.63;2.92;;;;;;;;;;5065976;28;20056;-65
2022/08/25 19:32:47;;;;;;;4.65;2.60;;;;;;;;;;5068541;28;20389;-65
2022/08/25 19:35:23;;;;;;;4.43;2.90;;;;;;;;;;5068615;28;20041;-65
2022/08/25 19:37:50;;;;;;;6.18;3.03;;;;;;;;;;5061966;28;20052;-65
2022/08/25 19:40:19;;;;;;;6.13;3.50;;;;;;;;;;5067546;28;20481;-67
2022/08/25 19:42:45;;;;;;;6.28;3.05;;;;;;;;;;5069451;28;20052;-65
2022/08/25 19:45:12;;;;;;;5.70;2.70;;;;;;;;;;5069355;28;20075;-66
2022/08/25 19:47:40;;;;;;;5.57;2.78;;;;;;;;;;5084674;28;20040;-64
2022/08/25 19:50:06;;;;;;;6.05;3.05;;;;;;;;;;5069098;28;20043;-67
2022/08/25 19:52:33;;;;;;;5.65;3.17;;;;;;;;;;5068263;28;20493;-66
2022/08/25 19:55:01;;;;;;;4.43;2.90;;;;;;;;;;5083898;28;20123;-66
2022/08/25 19:57:28;;;;;;;7.25;3.25;;;;;;;;;;5066772;28;20114;-66
2022/08/25 19:59:54;;;;;;;6.90;3.30;;;;;;;;;;5067602;28;20044;-65
2022/08/25 20:02:23;;;;;;;6.70;3.38;;;;;;;;;;5067942;28;20438;-65
2022/08/25 20:04:51;;;;;;;5.88;3.22;;;;;;;;;;5069756;28;20477;-65
2022/08/25 20:07:19;;;;;;;6.07;3.25;;;;;;;;;;5067882;28;20040;-65
2022/08/25 20:09:45;;;;;;;6.97;3.20;;;;;;;;;;5068321;28;20041;-65
2022/08/25 20:12:11;;;;;;;5.93;2.95;;;;;;;;;;5050804;28;20115;-68
2022/08/25 20:14:37;;;;;;;4.93;2.80;;;;;;;;;;5069222;28;20080;-64
2022/08/25 20:17:03;;;;;;;5.00;2.92;;;;;;;;;;5067814;28;20513;-65
2022/08/25 20:19:29;;;;;;;5.32;3.05;;;;;;;;;;5069680;28;20033;-65
2022/08/25 20:21:56;;;;;;;5.45;3.00;;;;;;;;;;5068525;28;20056;-64
2022/08/25 20:27:07;;;;;;;4.45;2.60;;;;;;;;;;5067443;28;20044;-65
2022/08/25 20:29:33;;;;;;;5.97;3.33;;;;;;;;;;5066695;28;20123;-64
2022/08/25 20:31:59;;;;;;;5.00;2.65;;;;;;;;;;5067459;28;20117;-64
2022/08/25 20:34:27;;;;;;;4.93;2.92;;;;;;;;;;5068046;28;20036;-64
2022/08/25 20:36:53;;;;;;;7.03;3.30;;;;;;;;;;5064920;28;20659;-65
2022/08/25 20:39:20;;;;;;;7.60;3.58;;;;;;;;;;5067699;28;20088;-65
2022/08/25 20:41:47;;;;;;;5.72;3.00;;;;;;;;;;5066678;28;20569;-65
2022/08/25 20:44:13;;;;;;;5.55;3.10;;;;;;;;;;5067656;28;20395;-65
2022/08/25 20:46:39;;;;;;;5.63;2.90;;;;;;;;;;5053665;28;20085;-65
2022/08/25 20:49:06;;;;;;;7.97;3.35;;;;;;;;;;5068247;28;20036;-65
2022/08/25 20:51:32;;;;;;;5.18;3.08;;;;;;;;;;5081955;28;20067;-65
2022/08/25 20:53:58;;;;;;;4.90;2.80;;;;;;;;;;5054575;28;20241;-65
2022/08/25 20:56:24;;;;;;;5.45;3.08;;;;;;;;;;5065209;28;20049;-65
2022/08/25 20:58:51;;;;;;;5.40;2.78;;;;;;;;;;5067728;28;20036;-65
2022/08/25 21:01:19;;;;;;;6.57;2.88;;;;;;;;;;5065094;28;20139;-67
2022/08/25 21:03:45;;;;;;;4.88;2.80;;;;;;;;;;5067931;28;20040;-65
2022/08/25 21:06:15;;;;;;;4.88;2.92;;;;;;;;;;5066657;28;20051;-65
2022/08/25 21:08:46;;;;;;;5.95;2.97;;;;;;;;;;5066195;28;20037;-65
2022/08/25 21:11:13;;;;;;;5.57;3.20;;;;;;;;;;5067734;28;20110;-64
2022/08/25 21:13:40;;;;;;;6.07;3.10;;;;;;;;;;5070501;28;20040;-65
2022/08/25 21:16:07;;;;;;;5.13;3.08;;;;;;;;;;5085637;28;20036;-65
2022/08/25 21:18:34;;;;;;;7.28;3.33;;;;;;;;;;5069261;28;20048;-64
2022/08/25 21:21:11;;;;;;;7.50;3.25;;;;;;;;;;5086080;28;20048;-63
2022/08/25 21:23:41;;;;;;;5.93;3.22;;;;;;;;;;5069836;28;20119;-64
2022/08/25 21:26:11;;;;;;;6.13;2.88;;;;;;;;;;5069072;28;20056;-66
2022/08/25 21:28:37;;;;;;;5.95;3.65;;;;;;;;;;5067170;28;20149;-63
2022/08/25 21:31:05;;;;;;;5.82;3.13;;;;;;;;;;5066886;28;20048;-64
2022/08/25 21:33:31;;;;;;;4.30;2.78;;;;;;;;;;5068552;28;20040;-64
2022/08/25 21:35:57;;;;;;;5.47;2.90;;;;;;;;;;5068320;28;20523;-65
2022/08/25 21:38:23;;;;;;;5.43;3.03;;;;;;;;;;5061873;28;20370;-66
2022/08/25 21:40:50;;;;;;;6.63;3.47;;;;;;;;;;5067749;28;20085;-64
2022/08/25 21:43:16;;;;;;;6.32;3.63;;;;;;;;;;5083200;28;20049;-66
2022/08/25 21:45:42;;;;;;;7.75;3.22;;;;;;;;;;5067160;28;20074;-65
2022/08/25 21:48:09;;;;;;;6.60;3.28;;;;;;;;;;5067053;28;20098;-64
2022/08/25 21:50:38;;;;;;;7.00;3.90;;;;;;;;;;5065756;28;20070;-66
2022/08/25 21:53:05;;;;;;;6.93;3.80;;;;;;;;;;5065828;28;20051;-65
2022/08/25 21:55:31;;;;;;;6.22;3.42;;;;;;;;;;5065747;28;20037;-65
2022/08/25 21:57:57;;;;;;;7.40;4.18;;;;;;;;;;5066169;28;20040;-65
2022/08/25 22:00:23;;;;;;;5.50;3.22;;;;;;;;;;5065872;28;20033;-65
2022/08/25 22:02:50;;;;;;;5.38;3.28;;;;;;;;;;5067176;28;20477;-65
2022/08/25 22:05:16;;;;;;;5.35;3.10;;;;;;;;;;5067316;28;20060;-66
2022/08/25 22:07:42;;;;;;;6.95;3.35;;;;;;;;;;5066497;28;20056;-65
2022/08/25 22:10:10;;;;;;;5.72;3.20;;;;;;;;;;5067565;28;20055;-65
2022/08/25 22:12:37;;;;;;;6.07;3.40;;;;;;;;;;5081902;28;20044;-65
2022/08/25 22:15:04;;;;;;;6.55;3.88;;;;;;;;;;5067143;28;20036;-66
2022/08/25 22:17:31;;;;;;;6.93;3.28;;;;;;;;;;5065624;28;20040;-65
2022/08/25 22:19:57;;;;;;;7.53;4.40;;;;;;;;;;5067533;28;20041;-66
2022/08/25 22:22:23;;;;;;;5.78;3.13;;;;;;;;;;5065464;28;20042;-65
2022/08/25 22:24:50;;;;;;;8.73;3.97;;;;;;;;;;5067372;28;20039;-67
2022/08/25 22:27:16;;;;;;;7.88;4.07;;;;;;;;;;5066652;28;20048;-65
2022/08/25 22:29:42;;;;;;;6.72;3.85;;;;;;;;;;5065806;28;20135;-65
2022/08/25 22:32:08;;;;;;;6.32;3.75;;;;;;;;;;5066138;28;20044;-65
2022/08/25 22:34:35;;;;;;;6.20;3.28;;;;;;;;;;5066891;28;20032;-65
2022/08/25 22:37:02;;;;;;;7.88;3.83;;;;;;;;;;5065736;28;20040;-65
2022/08/25 22:39:28;;;;;;;6.72;3.35;;;;;;;;;;5066162;28;20072;-66
2022/08/25 22:41:54;;;;;;;6.47;3.65;;;;;;;;;;5066028;28;20378;-64
2022/08/25 22:44:20;;;;;;;6.88;3.30;;;;;;;;;;5065818;28;20055;-66
2022/08/25 22:46:46;;;;;;;5.95;3.00;;;;;;;;;;5065802;28;20047;-64
2022/08/25 22:49:12;;;;;;;6.47;3.42;;;;;;;;;;5065790;28;20048;-65
2022/08/25 22:51:38;;;;;;;5.82;3.38;;;;;;;;;;5064491;28;20052;-66
2022/08/25 22:54:05;;;;;;;7.00;3.50;;;;;;;;;;5067277;28;20036;-65
2022/08/25 22:56:33;;;;;;;7.57;3.40;;;;;;;;;;5066667;28;20033;-65
2022/08/25 22:59:00;;;;;;;6.85;3.30;;;;;;;;;;5066058;28;20059;-66
2022/08/25 23:01:27;;;;;;;6.28;3.60;;;;;;;;;;5068060;28;20044;-65
2022/08/25 23:03:53;;;;;;;5.93;3.38;;;;;;;;;;5071297;28;20048;-65
2022/08/25 23:06:20;;;;;;;6.05;3.30;;;;;;;;;;5070218;28;20090;-67
2022/08/25 23:08:46;;;;;;;4.70;2.97;;;;;;;;;;5070487;28;20055;-65
2022/08/25 23:11:13;;;;;;;9.07;3.95;;;;;;;;;;5070322;28;20046;-65
2022/08/25 23:13:39;;;;;;;8.52;3.95;;;;;;;;;;5069043;28;20056;-66
2022/08/25 23:16:06;;;;;;;6.50;3.50;;;;;;;;;;5068864;28;20044;-64
2022/08/25 23:18:32;;;;;;;5.82;3.38;;;;;;;;;;5077539;28;20051;-64
2022/08/25 23:23:43;;;;;;;5.97;3.25;;;;;;;;;;5068645;28;20060;-64
2022/08/25 23:26:09;;;;;;;6.10;3.30;;;;;;;;;;5067444;28;20083;-66
2022/08/25 23:28:35;;;;;;;7.60;3.90;;;;;;;;;;5052695;28;20442;-64
2022/08/25 23:31:06;;;;;;;6.32;3.70;;;;;;;;;;5062300;28;20044;-64
2022/08/25 23:33:32;;;;;;;6.22;3.30;;;;;;;;;;5065395;28;20120;-65
2022/08/25 23:36:02;;;;;;;7.43;3.42;;;;;;;;;;5064574;28;20140;-64
2022/08/25 23:38:28;;;;;;;5.07;3.17;;;;;;;;;;5053009;28;20048;-66
2022/08/25 23:40:55;;;;;;;6.55;3.75;;;;;;;;;;5068870;28;20045;-64
2022/08/25 23:43:21;;;;;;;7.35;3.22;;;;;;;;;;5070356;28;20036;-64
2022/08/25 23:45:48;;;;;;;6.82;3.65;;;;;;;;;;5070681;28;20056;-65
2022/08/25 23:48:15;;;;;;;6.82;3.58;;;;;;;;;;5070144;28;20052;-64
2022/08/25 23:50:43;;;;;;;7.03;3.58;;;;;;;;;;5052182;28;20044;-65
2022/08/25 23:53:09;;;;;;;6.57;3.75;;;;;;;;;;5079316;28;20048;-64
2022/08/25 23:55:36;;;;;;;7.10;3.30;;;;;;;;;;5051606;28;20504;-64
2022/08/25 23:58:02;;;;;;;6.25;3.22;;;;;;;;;;5067162;28;20086;-64
